Time;durP1;ratioP1;P1;durP2;ratioP2;P2;SDS_P1;SDS_P2;PMS_P1;PMS_P2;Temp;Humidity;BMP_temperature;BMP_pressure;BME280_temperature;BME280_humidity;BME280_pressure;Samples;Min_cycle;Max_cycle;Signal;HPM_P1;HPM_P2
2022/11/09 00:00:39;;;;;;;1.23;1.13;;;13.90;99.90;;;;;;5083960;28;20422;-41
2022/11/09 00:03:07;;;;;;;2.27;1.37;;;14.00;99.90;;;;;;5075314;28;20204;-43
2022/11/09 00:05:34;;;;;;;1.33;1.23;;;14.00;99.90;;;;;;5078603;28;20218;-42
2022/11/09 00:08:01;;;;;;;1.30;1.17;;;14.00;99.90;;;;;;5069145;28;20700;-44
2022/11/09 00:10:28;;;;;;;2.17;1.20;;;13.90;99.90;;;;;;5079987;28;20957;-42
2022/11/09 00:12:55;;;;;;;2.33;1.20;;;13.90;99.90;;;;;;5080400;28;20206;-42
2022/11/09 00:15:22;;;;;;;3.27;1.40;;;14.00;99.90;;;;;;5082938;28;20916;-41
2022/11/09 00:17:49;;;;;;;1.73;1.13;;;13.90;99.90;;;;;;5086768;28;20197;-45
2022/11/09 00:20:17;;;;;;;1.73;1.00;;;13.90;99.90;;;;;;5076510;28;20304;-43
2022/11/09 00:22:47;;;;;;;2.00;1.03;;;13.90;99.90;;;;;;5070872;28;20201;-41
2022/11/09 00:25:14;;;;;;;1.60;1.30;;;13.90;99.90;;;;;;5075472;28;20786;-42
2022/11/09 00:27:41;;;;;;;2.30;1.60;;;13.90;99.90;;;;;;5081390;28;20206;-43
2022/11/09 00:30:09;;;;;;;1.87;1.20;;;13.90;99.90;;;;;;5083144;28;20327;-42
2022/11/09 00:32:37;;;;;;;2.03;1.17;;;13.80;99.90;;;;;;5084841;28;20244;-43
2022/11/09 00:35:04;;;;;;;1.47;0.93;;;13.80;99.90;;;;;;5079508;28;20229;-43
2022/11/09 00:37:32;;;;;;;1.70;1.27;;;13.90;99.90;;;;;;5064352;28;20646;-42
2022/11/09 00:39:59;;;;;;;2.80;1.17;;;13.90;99.90;;;;;;5083818;28;20214;-44
2022/11/09 00:42:27;;;;;;;2.30;1.43;;;13.80;99.90;;;;;;5072628;28;20206;-44
2022/11/09 00:44:54;;;;;;;3.70;1.37;;;13.80;99.90;;;;;;5084279;28;20224;-42
2022/11/09 00:47:21;;;;;;;3.03;1.50;;;13.80;99.90;;;;;;5083074;28;20269;-44
2022/11/09 00:49:48;;;;;;;3.53;1.30;;;13.80;99.90;;;;;;5085837;28;20277;-42
2022/11/09 00:52:15;;;;;;;3.17;1.40;;;13.70;99.90;;;;;;5074325;28;20225;-44
2022/11/09 00:54:43;;;;;;;1.87;1.43;;;13.70;99.90;;;;;;5066835;28;20279;-42
2022/11/09 00:57:13;;;;;;;1.23;1.13;;;13.70;99.90;;;;;;5069936;28;20201;-45
2022/11/09 00:59:43;;;;;;;2.83;1.07;;;13.70;99.90;;;;;;5084453;28;20229;-47
2022/11/09 01:02:10;;;;;;;1.87;1.13;;;13.70;99.90;;;;;;5081829;28;20202;-45
2022/11/09 01:04:36;;;;;;;2.57;1.23;;;13.70;99.90;;;;;;5082522;28;20316;-43
2022/11/09 01:07:03;;;;;;;2.67;1.20;;;13.60;99.90;;;;;;5078434;28;20302;-42
2022/11/09 01:09:30;;;;;;;2.77;1.03;;;13.70;99.90;;;;;;5066753;28;20209;-43
2022/11/09 01:11:59;;;;;;;1.57;1.17;;;13.60;99.90;;;;;;5082542;28;20252;-44
2022/11/09 01:14:26;;;;;;;3.17;1.20;;;13.60;99.90;;;;;;5079746;28;20317;-41
2022/11/09 01:16:53;;;;;;;2.30;1.53;;;13.60;99.90;;;;;;5083115;28;20228;-42
2022/11/09 01:19:20;;;;;;;2.10;1.20;;;13.60;99.90;;;;;;5081656;28;20194;-43
2022/11/09 01:21:47;;;;;;;1.53;1.20;;;13.60;99.90;;;;;;5083411;28;20226;-42
2022/11/09 01:24:14;;;;;;;2.53;1.17;;;13.60;99.90;;;;;;5059007;28;21248;-47
2022/11/09 01:26:41;;;;;;;3.60;1.37;;;13.60;99.90;;;;;;5084821;28;20198;-46
2022/11/09 01:29:09;;;;;;;1.90;1.03;;;13.60;99.90;;;;;;5076044;28;20297;-42
2022/11/09 01:31:36;;;;;;;1.27;1.10;;;13.60;99.90;;;;;;5083890;28;20202;-44
2022/11/09 01:34:03;;;;;;;1.43;1.33;;;13.60;99.90;;;;;;5079785;28;20244;-42
2022/11/09 01:36:33;;;;;;;1.63;1.20;;;13.60;99.90;;;;;;5084413;28;20285;-42
2022/11/09 01:39:01;;;;;;;3.00;1.30;;;13.50;99.90;;;;;;5068378;28;20202;-43
2022/11/09 01:41:29;;;;;;;2.70;1.20;;;13.50;99.90;;;;;;5077913;28;20962;-43
2022/11/09 01:44:09;;;;;;;1.93;1.00;;;13.50;99.90;;;;;;5077007;28;20233;-42
2022/11/09 01:46:47;;;;;;;1.30;1.20;;;13.50;99.90;;;;;;5084999;28;20202;-42
2022/11/09 01:49:22;;;;;;;3.47;1.23;;;13.50;99.90;;;;;;5080350;28;20270;-42
2022/11/09 01:51:53;;;;;;;2.57;1.43;;;13.50;99.90;;;;;;5077405;28;20205;-41
2022/11/09 01:54:23;;;;;;;3.10;1.47;;;13.50;99.90;;;;;;5074395;28;20221;-42
2022/11/09 01:56:54;;;;;;;2.50;1.10;;;13.50;99.90;;;;;;5069443;28;20205;-43
2022/11/09 01:59:26;;;;;;;5.80;1.30;;;13.50;99.90;;;;;;5075014;28;20198;-42
2022/11/09 02:01:54;;;;;;;1.60;1.30;;;13.40;99.90;;;;;;5082187;28;20312;-42
2022/11/09 02:04:26;;;;;;;1.23;1.13;;;13.40;99.90;;;;;;5077055;28;20222;-40
2022/11/09 02:06:54;;;;;;;2.50;1.30;;;13.40;99.90;;;;;;5077962;28;20206;-42
2022/11/09 02:09:27;;;;;;;2.47;1.30;;;13.30;99.90;;;;;;5074114;28;20339;-45
2022/11/09 02:11:54;;;;;;;1.47;1.10;;;13.30;99.90;;;;;;5067915;28;20225;-42
2022/11/09 02:14:26;;;;;;;2.20;1.17;;;13.30;99.90;;;;;;5073419;28;20316;-41
2022/11/09 02:17:15;;;;;;;2.90;1.20;;;13.30;99.90;;;;;;5074945;28;20983;-42
2022/11/09 02:19:42;;;;;;;1.77;1.30;;;13.30;99.90;;;;;;5084244;28;20217;-43
2022/11/09 02:22:11;;;;;;;1.47;1.23;;;13.20;99.90;;;;;;5078005;28;20306;-42
2022/11/09 02:24:38;;;;;;;4.10;1.30;;;13.20;99.90;;;;;;5077251;28;20249;-42
2022/11/09 02:27:06;;;;;;;2.13;1.30;;;13.20;99.90;;;;;;5068688;28;20202;-42
2022/11/09 02:29:37;;;;;;;4.30;1.30;;;13.20;99.90;;;;;;5077387;28;20205;-42
2022/11/09 02:32:09;;;;;;;2.10;1.40;;;13.20;99.90;;;;;;5079688;28;20674;-43
2022/11/09 02:34:36;;;;;;;1.50;1.40;;;13.20;99.90;;;;;;5081445;28;20347;-45
2022/11/09 02:37:03;;;;;;;1.33;1.00;;;13.20;99.90;;;;;;5079546;28;20205;-43
2022/11/09 02:39:33;;;;;;;1.33;1.17;;;13.20;99.90;;;;;;5081998;28;20202;-44
2022/11/09 02:42:02;;;;;;;2.07;1.40;;;13.10;99.90;;;;;;5066093;28;20306;-44
2022/11/09 02:44:35;;;;;;;1.83;1.23;;;13.10;99.90;;;;;;5078926;28;20710;-43
2022/11/09 02:47:02;;;;;;;1.53;1.20;;;13.10;99.90;;;;;;5075797;28;20216;-43
2022/11/09 02:49:29;;;;;;;1.60;1.30;;;13.10;99.90;;;;;;5081614;28;20206;-42
2022/11/09 02:51:56;;;;;;;1.50;1.13;;;13.10;99.90;;;;;;5076010;28;20190;-42
2022/11/09 02:54:23;;;;;;;2.40;1.43;;;13.10;99.90;;;;;;5080547;28;20430;-41
2022/11/09 02:56:53;;;;;;;2.57;1.47;;;13.10;99.90;;;;;;5075915;28;20200;-42
2022/11/09 02:59:21;;;;;;;1.37;1.27;;;13.10;99.90;;;;;;5064278;28;20290;-43
2022/11/09 03:02:10;;;;;;;1.50;1.10;;;13.10;99.90;;;;;;5072742;28;20333;-42
2022/11/09 03:04:37;;;;;;;1.43;1.30;;;13.00;99.90;;;;;;5082707;28;20224;-42
2022/11/09 03:07:04;;;;;;;1.53;1.37;;;13.00;99.90;;;;;;5079124;28;20683;-44
2022/11/09 03:09:31;;;;;;;2.17;1.30;;;13.00;99.90;;;;;;5081547;28;20312;-41
2022/11/09 03:12:27;;;;;;;1.90;1.33;;;13.00;99.90;;;;;;5080306;28;20566;-42
2022/11/09 03:14:47;;;;;;;1.57;1.40;;;13.00;99.90;;;;;;5062638;28;20729;-41
2022/11/09 03:17:13;;;;;;;1.57;1.27;;;12.90;99.90;;;;;;5074744;28;20306;-43
2022/11/09 03:19:40;;;;;;;2.63;1.23;;;12.90;99.90;;;;;;5086257;28;20201;-42
2022/11/09 03:22:07;;;;;;;2.10;1.40;;;12.90;99.90;;;;;;5082456;28;20914;-42
2022/11/09 03:24:34;;;;;;;2.57;1.37;;;12.90;99.90;;;;;;5086433;28;20214;-41
2022/11/09 03:27:03;;;;;;;2.43;1.63;;;12.90;99.90;;;;;;5084001;28;20201;-42
2022/11/09 03:29:30;;;;;;;2.60;1.37;;;12.90;99.90;;;;;;5063360;28;20210;-41
2022/11/09 03:31:56;;;;;;;3.13;1.70;;;12.80;99.90;;;;;;5079211;28;20674;-44
2022/11/09 03:34:23;;;;;;;2.03;1.43;;;12.90;99.90;;;;;;5082513;28;20226;-42
2022/11/09 03:36:51;;;;;;;2.60;1.40;;;12.80;99.90;;;;;;5085081;28;20350;-43
2022/11/09 03:39:18;;;;;;;2.13;1.30;;;12.80;99.90;;;;;;5082835;28;20186;-43
2022/11/09 03:41:45;;;;;;;2.73;1.27;;;12.80;99.90;;;;;;5087168;28;20226;-42
2022/11/09 03:44:13;;;;;;;1.93;1.40;;;12.90;99.90;;;;;;5074867;28;20228;-41
2022/11/09 03:46:40;;;;;;;2.70;2.03;;;12.80;99.90;;;;;;5066364;28;20235;-43
2022/11/09 03:49:07;;;;;;;2.70;1.53;;;12.80;99.90;;;;;;5083198;28;20202;-42
2022/11/09 03:51:33;;;;;;;1.73;1.30;;;12.80;99.90;;;;;;5083448;28;20206;-41
2022/11/09 03:54:00;;;;;;;2.57;1.50;;;12.90;99.90;;;;;;5079142;28;20240;-42
2022/11/09 03:56:28;;;;;;;3.43;1.77;;;12.90;99.90;;;;;;5085491;28;20934;-41
2022/11/09 03:58:55;;;;;;;3.27;1.50;;;12.90;99.90;;;;;;5085155;28;20201;-47
2022/11/09 04:01:23;;;;;;;3.90;1.87;;;12.90;99.90;;;;;;5064612;28;23274;-42
2022/11/09 04:03:50;;;;;;;2.10;1.40;;;12.90;99.90;;;;;;5080096;28;20815;-42
2022/11/09 04:06:17;;;;;;;1.47;1.37;;;12.90;99.90;;;;;;5081969;28;20961;-41
2022/11/09 04:08:44;;;;;;;3.37;1.40;;;12.90;99.90;;;;;;5086017;28;20642;-43
2022/11/09 04:11:11;;;;;;;3.23;1.40;;;13.00;99.90;;;;;;5082131;28;20200;-46
2022/11/09 04:13:37;;;;;;;2.83;1.50;;;13.00;99.90;;;;;;5085691;28;20190;-42
2022/11/09 04:16:05;;;;;;;2.53;1.43;;;13.00;99.90;;;;;;5077740;28;20206;-42
2022/11/09 04:18:33;;;;;;;3.03;1.30;;;13.00;99.90;;;;;;5070220;28;20202;-44
2022/11/09 04:21:00;;;;;;;2.30;1.10;;;13.00;99.90;;;;;;5083983;28;20220;-42
2022/11/09 04:23:27;;;;;;;4.63;1.50;;;13.00;99.90;;;;;;5083802;28;20210;-42
2022/11/09 04:25:54;;;;;;;3.20;1.30;;;13.00;99.90;;;;;;5085080;28;20224;-41
2022/11/09 04:28:21;;;;;;;3.47;1.77;;;13.00;99.90;;;;;;5081370;28;20190;-42
2022/11/09 04:30:48;;;;;;;1.63;1.43;;;13.10;99.90;;;;;;5080005;28;20194;-43
2022/11/09 04:33:16;;;;;;;1.87;1.30;;;13.10;99.90;;;;;;5065768;28;21905;-44
2022/11/09 04:35:44;;;;;;;2.50;1.40;;;13.20;99.90;;;;;;5085468;28;20221;-42
2022/11/09 04:38:13;;;;;;;1.77;1.40;;;13.20;99.90;;;;;;5079160;28;20492;-41
2022/11/09 04:40:41;;;;;;;3.50;1.80;;;13.20;99.90;;;;;;5085850;28;20568;-42
2022/11/09 04:43:12;;;;;;;2.80;1.90;;;13.20;99.90;;;;;;5081606;28;20216;-41
2022/11/09 04:45:39;;;;;;;6.00;1.80;;;13.30;99.90;;;;;;5083210;28;20218;-43
2022/11/09 04:48:07;;;;;;;3.40;1.90;;;13.30;99.90;;;;;;5063946;28;20198;-41
2022/11/09 04:50:35;;;;;;;3.47;1.70;;;13.30;99.90;;;;;;5085521;28;20221;-45
2022/11/09 04:53:06;;;;;;;3.40;1.80;;;13.30;99.90;;;;;;5081035;28;20237;-41
2022/11/09 04:55:33;;;;;;;3.10;1.90;;;13.30;99.90;;;;;;5080987;28;20214;-42
2022/11/09 04:58:23;;;;;;;4.23;1.40;;;13.40;99.90;;;;;;5077024;28;20225;-41
2022/11/09 05:00:50;;;;;;;5.10;3.83;;;13.40;99.90;;;;;;5074830;28;20213;-42
2022/11/09 05:03:17;;;;;;;4.13;2.23;;;13.40;99.90;;;;;;5067238;28;20229;-48
2022/11/09 05:05:44;;;;;;;1.80;1.50;;;13.40;99.90;;;;;;5077198;28;20237;-42
2022/11/09 05:08:12;;;;;;;3.73;1.50;;;13.40;99.90;;;;;;5077244;28;20201;-44
2022/11/09 05:10:39;;;;;;;2.70;1.70;;;13.40;99.90;;;;;;5080841;28;20227;-42
2022/11/09 05:13:09;;;;;;;3.60;2.10;;;13.40;99.90;;;;;;5077101;28;20206;-43
2022/11/09 05:15:36;;;;;;;3.70;1.73;;;13.40;99.90;;;;;;5080428;28;20344;-43
2022/11/09 05:18:04;;;;;;;1.73;1.20;;;13.40;99.90;;;;;;5076301;28;20206;-43
2022/11/09 05:20:31;;;;;;;2.70;1.50;;;13.40;99.90;;;;;;5061338;28;20919;-45
2022/11/09 05:25:46;;;;;;;2.40;1.60;;;13.50;99.90;;;;;;5079861;28;20209;-42
2022/11/09 05:28:35;;;;;;;1.37;1.13;;;13.50;99.90;;;;;;5081291;28;20201;-42
2022/11/09 05:31:02;;;;;;;1.87;1.17;;;13.50;99.90;;;;;;5083689;28;20634;-45
2022/11/09 05:33:29;;;;;;;2.10;1.70;;;13.50;99.90;;;;;;5065560;28;20236;-45
2022/11/09 05:35:56;;;;;;;4.27;1.67;;;13.40;99.90;;;;;;5065207;28;20233;-43
2022/11/09 05:38:23;;;;;;;1.30;1.20;;;13.50;99.90;;;;;;5075150;28;20735;-43
2022/11/09 05:40:52;;;;;;;1.67;1.30;;;13.50;99.90;;;;;;5073498;28;20190;-42
2022/11/09 05:43:20;;;;;;;3.30;1.77;;;13.50;99.90;;;;;;5081992;28;20208;-44
2022/11/09 05:45:47;;;;;;;2.93;1.23;;;13.50;99.90;;;;;;5073303;28;20229;-42
2022/11/09 05:48:17;;;;;;;2.20;1.57;;;13.50;99.90;;;;;;5072467;28;20202;-42
2022/11/09 05:50:44;;;;;;;1.47;1.30;;;13.50;99.90;;;;;;5057719;28;20285;-42
2022/11/09 05:53:23;;;;;;;2.53;1.50;;;13.40;99.90;;;;;;5096676;28;20210;-42
2022/11/09 05:55:52;;;;;;;1.50;1.37;;;13.40;99.90;;;;;;5074510;28;20224;-43
2022/11/09 05:58:18;;;;;;;2.70;1.87;;;13.40;99.90;;;;;;5079417;28;20204;-44
2022/11/09 06:00:45;;;;;;;1.57;1.30;;;13.30;99.90;;;;;;5071336;28;20202;-42
2022/11/09 06:03:12;;;;;;;3.50;1.53;;;13.30;99.90;;;;;;5070538;28;20221;-45
2022/11/09 06:05:40;;;;;;;2.17;1.40;;;13.30;99.90;;;;;;5075916;28;20230;-42
2022/11/09 06:08:11;;;;;;;3.03;1.50;;;13.20;99.90;;;;;;5065375;28;20653;-43
2022/11/09 06:10:39;;;;;;;3.90;1.43;;;13.30;99.90;;;;;;5075911;28;20239;-44
2022/11/09 06:13:07;;;;;;;2.13;1.20;;;13.20;99.90;;;;;;5075677;28;20285;-43
2022/11/09 06:15:34;;;;;;;3.23;1.73;;;13.20;99.90;;;;;;5074381;28;20305;-43
2022/11/09 06:18:01;;;;;;;4.50;1.60;;;13.20;99.90;;;;;;5080524;28;20201;-42
2022/11/09 06:20:29;;;;;;;5.20;1.40;;;13.20;99.90;;;;;;5071316;28;20192;-44
2022/11/09 06:22:56;;;;;;;2.83;1.40;;;13.20;99.90;;;;;;5068747;28;20221;-43
2022/11/09 06:25:23;;;;;;;2.33;1.57;;;13.20;99.90;;;;;;5071515;28;20217;-44
2022/11/09 06:27:53;;;;;;;2.50;1.73;;;13.20;99.90;;;;;;5082570;28;20216;-41
2022/11/09 06:30:23;;;;;;;1.33;1.23;;;13.20;99.90;;;;;;5073979;28;20209;-43
2022/11/09 06:32:50;;;;;;;3.20;1.53;;;13.20;99.90;;;;;;5082722;28;20217;-45
2022/11/09 06:35:17;;;;;;;4.90;1.77;;;13.20;99.90;;;;;;5071479;28;20228;-43
2022/11/09 06:37:44;;;;;;;4.27;1.50;;;13.30;99.90;;;;;;5083172;28;20198;-42
2022/11/09 06:40:13;;;;;;;2.50;1.87;;;13.30;99.90;;;;;;5061215;28;20210;-42
2022/11/09 06:42:40;;;;;;;3.20;1.30;;;13.30;99.90;;;;;;5073545;28;20209;-43
2022/11/09 06:45:07;;;;;;;1.93;1.13;;;13.30;99.90;;;;;;5075669;28;20228;-45
2022/11/09 06:47:35;;;;;;;2.87;1.30;;;13.30;99.90;;;;;;5077974;28;20206;-42
2022/11/09 06:50:02;;;;;;;1.70;1.20;;;13.30;99.90;;;;;;5065662;28;20209;-43
2022/11/09 06:52:29;;;;;;;1.83;1.20;;;13.40;99.90;;;;;;5076044;28;20190;-43
2022/11/09 06:54:55;;;;;;;2.17;1.83;;;13.40;99.90;;;;;;5057209;28;20232;-42
2022/11/09 06:57:22;;;;;;;1.43;1.33;;;13.50;99.90;;;;;;5074815;28;20201;-42
2022/11/09 06:59:49;;;;;;;2.30;1.90;;;13.50;99.90;;;;;;5074740;28;20212;-45
2022/11/09 07:02:17;;;;;;;7.60;1.70;;;13.50;99.90;;;;;;5071334;28;23463;-41
2022/11/09 07:04:45;;;;;;;1.80;1.40;;;13.60;99.90;;;;;;5078483;28;20222;-42
2022/11/09 07:07:12;;;;;;;2.27;1.40;;;13.60;99.90;;;;;;5072659;28;20210;-42
2022/11/09 07:09:39;;;;;;;3.47;1.50;;;13.60;99.90;;;;;;5082894;28;20217;-43
2022/11/09 07:12:07;;;;;;;2.80;1.93;;;13.60;99.90;;;;;;5058457;28;20205;-43
2022/11/09 07:14:33;;;;;;;1.67;1.57;;;13.60;99.90;;;;;;5076980;28;20210;-43
2022/11/09 07:17:00;;;;;;;2.60;1.20;;;13.60;99.90;;;;;;5077136;28;20694;-47
2022/11/09 07:19:28;;;;;;;3.93;2.60;;;13.60;99.90;;;;;;5070558;28;20205;-45
2022/11/09 07:21:57;;;;;;;3.00;2.70;;;13.60;99.90;;;;;;5075851;28;20793;-41
2022/11/09 07:24:24;;;;;;;2.27;1.43;;;13.60;99.90;;;;;;5078184;28;20209;-44
2022/11/09 07:26:51;;;;;;;6.63;1.97;;;13.60;99.90;;;;;;5064866;28;20210;-43
2022/11/09 07:29:18;;;;;;;2.43;1.33;;;13.60;99.90;;;;;;5075928;28;20205;-42
2022/11/09 07:31:45;;;;;;;2.20;1.63;;;13.60;99.90;;;;;;5080952;28;20202;-44
2022/11/09 07:34:12;;;;;;;2.03;1.47;;;13.60;99.90;;;;;;5076354;28;21060;-43
2022/11/09 07:36:39;;;;;;;2.80;1.10;;;13.60;99.90;;;;;;5072097;28;20232;-42
2022/11/09 07:39:07;;;;;;;2.13;1.70;;;13.60;99.90;;;;;;5073598;28;20280;-42
2022/11/09 07:41:34;;;;;;;3.47;1.97;;;13.60;99.90;;;;;;5062282;28;20217;-43
2022/11/09 07:44:01;;;;;;;3.17;1.63;;;13.60;99.90;;;;;;5072307;28;20232;-42
2022/11/09 07:46:28;;;;;;;2.50;2.10;;;13.60;99.90;;;;;;5074673;28;20275;-42
2022/11/09 07:48:55;;;;;;;3.17;2.83;;;13.60;99.90;;;;;;5080081;28;20631;-42
2022/11/09 07:51:22;;;;;;;4.07;2.23;;;13.50;99.90;;;;;;5070565;28;20225;-42
2022/11/09 07:53:49;;;;;;;2.60;1.77;;;13.50;99.90;;;;;;5074755;28;20198;-42
2022/11/09 07:56:17;;;;;;;3.63;1.37;;;13.60;99.90;;;;;;5062364;28;20209;-43
2022/11/09 07:58:44;;;;;;;3.50;2.27;;;13.60;99.90;;;;;;5057232;28;20912;-42
2022/11/09 08:01:11;;;;;;;3.60;1.80;;;13.60;99.90;;;;;;5066160;28;20391;-43
2022/11/09 08:03:38;;;;;;;2.50;1.30;;;13.70;99.90;;;;;;5072857;28;20218;-42
2022/11/09 08:06:05;;;;;;;4.60;2.30;;;13.70;99.90;;;;;;5076539;28;20210;-41
2022/11/09 08:08:31;;;;;;;6.17;2.90;;;13.70;99.90;;;;;;5067975;28;20604;-41
2022/11/09 08:10:58;;;;;;;3.20;2.13;;;13.70;99.90;;;;;;5072162;28;20211;-43
2022/11/09 08:13:26;;;;;;;4.27;1.40;;;13.80;99.90;;;;;;5065305;28;20784;-41
2022/11/09 08:15:53;;;;;;;2.50;1.60;;;13.80;99.90;;;;;;5067157;28;20283;-41
2022/11/09 08:18:21;;;;;;;2.50;1.80;;;13.80;99.90;;;;;;5072112;28;20198;-45
2022/11/09 08:20:49;;;;;;;3.47;1.50;;;13.70;99.90;;;;;;5057581;28;20213;-45
2022/11/09 08:23:19;;;;;;;4.40;1.30;;;13.80;99.90;;;;;;5065973;28;21879;-44
2022/11/09 08:25:47;;;;;;;3.97;1.50;;;13.80;99.90;;;;;;5062891;28;20639;-46
2022/11/09 08:28:15;;;;;;;3.77;1.90;;;13.80;99.90;;;;;;5060150;28;20214;-43
2022/11/09 08:30:45;;;;;;;5.17;2.00;;;13.80;99.90;;;;;;5054642;28;20947;-44
2022/11/09 08:33:13;;;;;;;2.40;1.50;;;13.90;99.90;;;;;;5071597;28;20667;-44
2022/11/09 08:35:39;;;;;;;3.23;1.73;;;13.90;99.90;;;;;;5067020;28;20224;-42
2022/11/09 08:38:06;;;;;;;2.43;1.40;;;13.90;99.90;;;;;;5067761;28;20702;-41
2022/11/09 08:40:33;;;;;;;2.23;1.77;;;13.90;99.90;;;;;;5064659;28;20279;-41
2022/11/09 08:43:05;;;;;;;5.03;1.97;;;13.90;99.90;;;;;;5060347;28;21379;-42
2022/11/09 08:45:33;;;;;;;2.17;1.90;;;13.90;99.90;;;;;;5059808;28;20233;-42
2022/11/09 08:48:03;;;;;;;5.03;1.50;;;14.00;99.90;;;;;;5069327;28;20202;-44
2022/11/09 08:50:32;;;;;;;5.03;2.57;;;14.10;99.90;;;;;;5057094;28;20201;-41
2022/11/09 08:53:00;;;;;;;4.57;1.83;;;14.10;99.90;;;;;;5066318;28;20317;-44
2022/11/09 08:55:26;;;;;;;2.90;1.70;;;14.10;99.90;;;;;;5059746;28;20237;-40
2022/11/09 08:57:54;;;;;;;3.03;1.57;;;14.20;99.90;;;;;;5073324;28;20194;-42
2022/11/09 09:00:22;;;;;;;5.20;1.80;;;14.30;99.90;;;;;;5055154;28;20701;-39
2022/11/09 09:02:49;;;;;;;3.47;1.93;;;14.30;99.90;;;;;;5060117;28;20218;-42
2022/11/09 09:05:18;;;;;;;1.40;1.23;;;14.40;99.90;;;;;;5072101;28;20245;-43
2022/11/09 09:07:45;;;;;;;5.83;1.70;;;14.50;99.90;;;;;;5060186;28;20269;-40
2022/11/09 09:10:13;;;;;;;6.67;2.20;;;14.50;99.90;;;;;;5065043;28;20202;-43
2022/11/09 09:12:40;;;;;;;4.60;1.40;;;14.60;99.90;;;;;;5061163;28;21024;-42
2022/11/09 09:15:08;;;;;;;3.07;1.40;;;14.70;99.90;;;;;;5050413;28;20226;-40
2022/11/09 09:17:35;;;;;;;3.70;2.17;;;14.80;99.90;;;;;;5069379;28;20678;-41
2022/11/09 09:20:02;;;;;;;4.63;1.47;;;14.80;99.90;;;;;;5072061;28;20582;-41
2022/11/09 09:22:32;;;;;;;4.23;1.33;;;14.90;99.90;;;;;;5062500;28;20221;-41
2022/11/09 09:25:21;;;;;;;5.30;2.13;;;14.90;99.90;;;;;;5065185;28;20431;-41
2022/11/09 09:27:48;;;;;;;3.90;1.30;;;15.00;99.90;;;;;;5074029;28;20190;-41
2022/11/09 09:30:14;;;;;;;3.63;1.80;;;15.10;99.90;;;;;;5061894;28;20201;-41
2022/11/09 09:32:41;;;;;;;3.37;1.83;;;15.30;99.90;;;;;;5061092;28;20209;-45
2022/11/09 09:35:09;;;;;;;4.77;2.20;;;15.40;99.90;;;;;;5058400;28;20230;-44
2022/11/09 09:37:37;;;;;;;2.93;1.10;;;15.50;99.90;;;;;;5068514;28;20653;-44
2022/11/09 09:40:04;;;;;;;5.00;1.20;;;15.50;99.90;;;;;;5065229;28;20668;-42
2022/11/09 09:42:34;;;;;;;4.57;1.20;;;15.40;99.90;;;;;;5074363;28;20222;-41
2022/11/09 09:45:04;;;;;;;6.20;2.60;;;15.30;99.90;;;;;;5052480;28;20257;-43
2022/11/09 09:47:44;;;;;;;5.90;1.83;;;15.30;99.90;;;;;;5070233;28;20197;-42
2022/11/09 09:50:14;;;;;;;3.40;2.10;;;15.10;99.90;;;;;;5067805;28;20789;-41
2022/11/09 09:52:46;;;;;;;6.70;2.30;;;15.00;99.90;;;;;;5079182;28;20814;-41
2022/11/09 09:55:20;;;;;;;4.93;2.37;;;15.00;99.90;;;;;;5064614;28;20225;-41
2022/11/09 09:57:53;;;;;;;6.03;1.40;;;14.90;99.90;;;;;;5065034;28;20197;-44
2022/11/09 10:00:23;;;;;;;4.03;1.65;;;14.90;99.90;;;;;;5070207;28;20424;-44
2022/11/09 10:02:51;;;;;;;5.37;1.80;;;15.00;99.90;;;;;;5058123;28;20229;-43
2022/11/09 10:05:20;;;;;;;4.03;1.57;;;15.00;99.90;;;;;;5069769;28;20214;-44
2022/11/09 10:07:56;;;;;;;10.03;1.70;;;15.00;99.90;;;;;;5081469;28;20206;-41
2022/11/09 10:10:36;;;;;;;5.07;2.10;;;15.10;99.90;;;;;;5079577;28;20190;-41
2022/11/09 10:13:31;;;;;;;3.80;2.00;;;15.20;99.90;;;;;;5068177;28;20201;-40
2022/11/09 10:16:06;;;;;;;6.63;1.80;;;15.30;99.90;;;;;;5067374;28;20222;-42
2022/11/09 10:53:16;;;;;;;3.93;2.40;;;15.40;99.90;;;;;;5016213;28;20626;-42
2022/11/09 10:56:17;;;;;;;4.33;1.50;;;15.90;99.90;;;;;;5025201;28;20713;-46
2022/11/09 10:59:03;;;;;;;4.17;1.37;;;15.80;99.90;;;;;;5006065;28;20292;-44
2022/11/09 11:01:48;;;;;;;2.87;1.70;;;15.70;99.90;;;;;;5016968;28;20214;-46
2022/11/09 11:04:34;;;;;;;4.97;1.90;;;15.70;99.90;;;;;;5026843;28;20273;-48
2022/11/09 11:07:22;;;;;;;5.17;1.90;;;15.70;99.90;;;;;;5021952;28;20215;-44
2022/11/09 11:10:19;;;;;;;4.87;1.80;;;15.70;99.90;;;;;;5019414;28;20235;-46
2022/11/09 11:13:24;;;;;;;7.70;2.20;;;15.70;99.90;;;;;;5016132;28;20218;-45
2022/11/09 11:16:25;;;;;;;4.43;1.70;;;15.70;99.90;;;;;;5015489;28;20206;-44
2022/11/09 11:19:33;;;;;;;3.43;1.70;;;15.60;99.90;;;;;;5016296;28;20218;-49
2022/11/09 11:22:22;;;;;;;5.33;1.67;;;15.50;99.90;;;;;;5020355;28;20207;-45
2022/11/09 11:25:19;;;;;;;6.97;2.20;;;15.50;99.90;;;;;;5014252;28;20407;-47
2022/11/09 11:28:16;;;;;;;5.50;1.53;;;15.50;99.90;;;;;;5016709;28;20202;-48
2022/11/09 11:31:02;;;;;;;5.57;1.40;;;15.40;99.90;;;;;;5009760;28;20370;-45
2022/11/09 11:33:48;;;;;;;6.97;2.03;;;15.30;99.90;;;;;;5022934;28;20238;-44
2022/11/09 11:36:48;;;;;;;4.07;1.60;;;15.40;99.90;;;;;;5021330;28;20230;-44
2022/11/09 11:39:55;;;;;;;4.53;1.13;;;15.40;99.90;;;;;;5018332;28;20223;-43
2022/11/09 11:43:03;;;;;;;5.17;2.33;;;15.40;99.90;;;;;;5029084;28;20227;-44
2022/11/09 11:45:58;;;;;;;4.47;2.00;;;15.40;99.90;;;;;;5002337;28;20401;-47
2022/11/09 11:49:02;;;;;;;9.03;2.00;;;15.40;99.90;;;;;;5022531;28;20349;-52
2022/11/09 11:51:58;;;;;;;7.23;1.67;;;15.40;99.90;;;;;;5025212;28;20945;-50
2022/11/09 11:54:59;;;;;;;4.60;1.53;;;15.30;99.90;;;;;;5009013;28;20219;-48
2022/11/09 11:58:01;;;;;;;4.13;2.37;;;15.30;99.90;;;;;;5011996;28;20207;-51
2022/11/09 12:00:53;;;;;;;4.90;1.63;;;15.30;99.90;;;;;;5003388;28;20210;-47
2022/11/09 12:03:49;;;;;;;3.93;1.67;;;15.20;99.90;;;;;;5014648;28;20293;-48
2022/11/09 12:06:57;;;;;;;7.93;1.87;;;15.20;99.90;;;;;;5008540;28;20211;-54
2022/11/09 12:09:59;;;;;;;3.17;1.83;;;15.20;99.90;;;;;;5012016;28;20341;-52
2022/11/09 12:12:54;;;;;;;5.63;1.53;;;15.20;99.90;;;;;;5010535;28;20706;-46
2022/11/09 12:15:51;;;;;;;5.07;1.47;;;15.20;99.90;;;;;;5001784;28;20259;-51
2022/11/09 12:18:46;;;;;;;5.00;2.57;;;15.30;99.90;;;;;;5017025;28;20223;-48
2022/11/09 12:21:39;;;;;;;5.87;1.07;;;15.30;99.90;;;;;;5014683;28;20207;-49
2022/11/09 12:24:31;;;;;;;2.30;1.40;;;15.30;99.90;;;;;;5004906;28;20247;-49
2022/11/09 12:27:37;;;;;;;5.03;1.77;;;15.30;99.90;;;;;;5008502;28;20643;-50
2022/11/09 12:30:27;;;;;;;5.27;2.20;;;15.30;99.90;;;;;;5012483;28;20211;-46
2022/11/09 12:33:18;;;;;;;6.63;2.00;;;15.40;99.90;;;;;;4990598;28;20234;-48
2022/11/09 12:36:11;;;;;;;4.07;1.97;;;15.40;99.90;;;;;;5011026;28;20215;-51
2022/11/09 12:39:02;;;;;;;3.87;1.57;;;15.40;99.90;;;;;;5018087;28;20211;-53
2022/11/09 12:41:49;;;;;;;4.33;2.20;;;15.40;99.90;;;;;;5007852;28;20703;-41
2022/11/09 12:44:39;;;;;;;6.20;2.80;;;15.40;99.90;;;;;;4998943;28;20220;-42
2022/11/09 12:47:30;;;;;;;4.07;1.50;;;15.50;99.90;;;;;;4999904;28;22597;-41
2022/11/09 12:50:19;;;;;;;3.43;1.80;;;15.50;99.90;;;;;;5007182;28;20293;-42
2022/11/09 12:53:05;;;;;;;3.97;1.87;;;15.50;99.90;;;;;;5019047;28;20227;-42
2022/11/09 12:55:56;;;;;;;5.60;1.47;;;15.50;99.90;;;;;;5017034;28;20287;-41
2022/11/09 12:58:41;;;;;;;3.80;1.50;;;15.50;99.90;;;;;;5012541;28;20774;-41
2022/11/09 13:01:48;;;;;;;5.23;2.07;;;15.50;99.90;;;;;;5004589;28;20339;-43
2022/11/09 13:04:36;;;;;;;7.63;2.57;;;15.50;99.90;;;;;;5000400;28;20218;-41
2022/11/09 13:07:43;;;;;;;6.30;2.40;;;15.50;99.90;;;;;;5019317;28;20222;-42
2022/11/09 13:10:31;;;;;;;7.93;1.83;;;15.50;99.90;;;;;;5004804;28;20211;-41
2022/11/09 13:13:23;;;;;;;4.83;1.70;;;15.50;99.90;;;;;;5002183;28;20972;-41
2022/11/09 13:16:12;;;;;;;4.53;2.10;;;15.50;99.90;;;;;;5010003;28;20208;-41
2022/11/09 13:18:57;;;;;;;7.57;2.80;;;15.60;99.90;;;;;;5000942;28;20230;-45
2022/11/09 13:21:44;;;;;;;5.13;1.93;;;15.60;99.90;;;;;;5009981;28;20469;-41
2022/11/09 13:24:55;;;;;;;3.33;1.40;;;15.60;99.90;;;;;;5018299;28;20234;-41
2022/11/09 13:27:43;;;;;;;6.13;1.80;;;15.60;99.90;;;;;;5009657;28;20215;-44
2022/11/09 13:30:50;;;;;;;6.40;2.50;;;15.50;99.90;;;;;;5011391;28;20577;-40
2022/11/09 13:33:38;;;;;;;6.83;1.80;;;15.50;99.90;;;;;;5004612;28;20330;-41
2022/11/09 13:36:24;;;;;;;4.53;1.27;;;15.60;99.90;;;;;;5010521;28;20259;-42
2022/11/09 13:39:31;;;;;;;4.93;1.50;;;16.00;99.90;;;;;;5012992;28;20844;-44
2022/11/09 13:42:27;;;;;;;2.53;1.00;;;16.40;99.90;;;;;;5014628;28;20333;-42
2022/11/09 13:45:28;;;;;;;3.53;1.23;;;16.10;99.90;;;;;;5018259;28;20246;-41
2022/11/09 13:48:39;;;;;;;2.87;1.40;;;16.00;99.90;;;;;;5008619;28;20246;-41
2022/11/09 13:51:41;;;;;;;5.10;1.87;;;16.10;99.90;;;;;;5013425;28;20239;-43
2022/11/09 13:54:31;;;;;;;3.20;1.67;;;16.00;99.90;;;;;;5009683;28;20242;-41
2022/11/09 13:57:17;;;;;;;6.17;2.27;;;15.90;99.90;;;;;;5015356;28;20606;-42
2022/11/09 14:00:05;;;;;;;5.17;2.20;;;16.00;99.90;;;;;;5003235;28;20306;-41